Time;durP1;ratioP1;P1;durP2;ratioP2;P2;SDS_P1;SDS_P2;PMS_P1;PMS_P2;Temp;Humidity;BMP_temperature;BMP_pressure;BME280_temperature;BME280_humidity;BME280_pressure;Samples;Min_cycle;Max_cycle;Signal;HPM_P1;HPM_P2
2021/01/05 00:00:15;;;;;;;49.40;24.03;;;-0.20;99.90;;;;;;5052214;28;20636;-74
2021/01/05 00:02:41;;;;;;;47.17;23.37;;;-0.20;99.90;;;;;;5052335;28;20196;-75
2021/01/05 00:05:08;;;;;;;47.03;22.80;;;-0.20;99.90;;;;;;5052156;28;20201;-75
2021/01/05 00:07:34;;;;;;;49.53;23.17;;;-0.20;99.90;;;;;;5052178;28;20713;-75
2021/01/05 00:10:00;;;;;;;54.07;23.40;;;-0.20;99.90;;;;;;5052529;28;20188;-75
2021/01/05 00:12:26;;;;;;;49.47;23.33;;;-0.10;99.90;;;;;;5051107;28;20537;-76
2021/01/05 00:14:52;;;;;;;48.67;22.93;;;-0.10;99.90;;;;;;5052428;28;20192;-75
2021/01/05 00:17:20;;;;;;;55.30;23.53;;;-0.10;99.90;;;;;;5051984;28;20170;-75
2021/01/05 00:19:47;;;;;;;50.03;23.13;;;-0.10;99.90;;;;;;5051958;28;20643;-75
2021/01/05 00:22:15;;;;;;;48.20;22.93;;;-0.10;99.90;;;;;;5052256;28;20201;-75
2021/01/05 00:24:41;;;;;;;46.53;22.63;;;0.00;99.90;;;;;;5050694;28;20205;-75
2021/01/05 00:27:06;;;;;;;45.83;22.10;;;0.00;99.90;;;;;;5052022;28;20181;-76
2021/01/05 00:29:33;;;;;;;43.10;21.40;;;0.00;99.90;;;;;;5052136;28;20203;-76
2021/01/05 00:32:24;;;;;;;49.63;22.37;;;0.10;99.90;;;;;;5039774;28;20202;-75
2021/01/05 00:34:51;;;;;;;43.50;21.10;;;-0.10;99.90;;;;;;5036423;28;20543;-75
2021/01/05 00:37:17;;;;;;;45.93;20.53;;;-0.20;99.90;;;;;;5052001;28;20178;-76
2021/01/05 00:39:44;;;;;;;44.87;20.73;;;-0.20;99.90;;;;;;5052259;28;20253;-76
2021/01/05 00:42:10;;;;;;;43.90;19.93;;;-0.20;99.90;;;;;;5051848;28;20284;-75
2021/01/05 00:44:36;;;;;;;43.17;20.13;;;-0.20;99.90;;;;;;5051733;28;20276;-75
2021/01/05 00:47:03;;;;;;;41.97;21.13;;;-0.20;99.90;;;;;;5052010;28;20265;-75
2021/01/05 00:49:29;;;;;;;44.20;20.40;;;-0.20;99.90;;;;;;5051802;28;20530;-75
2021/01/05 00:51:54;;;;;;;39.90;19.50;;;-0.20;99.90;;;;;;5050575;28;20204;-75
2021/01/05 00:54:20;;;;;;;42.20;20.30;;;-0.20;99.90;;;;;;5051775;28;20188;-76
2021/01/05 00:57:18;;;;;;;38.03;18.83;;;-0.20;99.90;;;;;;5041760;28;20177;-75
2021/01/05 00:59:44;;;;;;;38.50;18.43;;;-0.30;99.90;;;;;;5007271;28;20219;-74
2021/01/05 01:02:13;;;;;;;43.20;18.90;;;-0.30;99.90;;;;;;5050306;28;20209;-76
2021/01/05 01:04:39;;;;;;;40.73;19.43;;;-0.20;99.90;;;;;;5051099;28;20981;-75
2021/01/05 01:07:05;;;;;;;37.57;17.90;;;-0.20;99.90;;;;;;5039939;28;20566;-75
2021/01/05 01:09:31;;;;;;;37.03;17.60;;;-0.20;99.90;;;;;;5051734;28;20184;-75
2021/01/05 01:12:07;;;;;;;34.33;16.63;;;-0.30;99.90;;;;;;5051535;28;20204;-74
2021/01/05 01:14:34;;;;;;;34.03;15.70;;;-0.20;99.90;;;;;;5051642;28;20184;-75
2021/01/05 01:17:00;;;;;;;35.33;17.43;;;-0.20;99.90;;;;;;5051576;28;20252;-75
2021/01/05 01:19:26;;;;;;;36.53;17.90;;;-0.20;99.90;;;;;;5051678;28;20249;-75
2021/01/05 01:21:54;;;;;;;32.40;17.03;;;-0.20;99.90;;;;;;5051487;28;20194;-75
2021/01/05 01:24:22;;;;;;;35.83;17.03;;;-0.20;99.90;;;;;;5051625;28;20193;-75
2021/01/05 01:26:48;;;;;;;34.27;16.73;;;-0.20;99.90;;;;;;5051790;28;20177;-75
2021/01/05 01:29:19;;;;;;;35.13;16.40;;;-0.20;99.90;;;;;;5051739;28;20170;-75
2021/01/05 01:31:46;;;;;;;32.40;16.87;;;-0.20;99.90;;;;;;5046051;28;20209;-75
2021/01/05 01:34:14;;;;;;;31.33;16.97;;;-0.30;99.90;;;;;;5054068;28;20189;-75
2021/01/05 01:36:41;;;;;;;35.23;16.67;;;-0.20;99.90;;;;;;5054933;28;20670;-74
2021/01/05 01:39:07;;;;;;;30.80;15.47;;;-0.20;99.90;;;;;;5054829;28;20189;-75
2021/01/05 01:41:34;;;;;;;35.87;15.87;;;-0.20;99.90;;;;;;5055063;28;20261;-75
2021/01/05 01:44:00;;;;;;;40.40;18.13;;;-0.30;99.90;;;;;;5053030;28;20206;-75
2021/01/05 01:46:32;;;;;;;32.77;16.33;;;-0.30;99.90;;;;;;5053711;28;20766;-75
2021/01/05 01:48:57;;;;;;;36.10;16.33;;;-0.30;99.90;;;;;;5054839;28;20173;-76
2021/01/05 01:51:24;;;;;;;34.17;16.20;;;-0.30;99.90;;;;;;5054531;28;20273;-73
2021/01/05 01:54:11;;;;;;;30.30;15.83;;;-0.30;99.90;;;;;;5054869;28;20252;-75
2021/01/05 01:57:01;;;;;;;32.70;15.83;;;-0.30;99.90;;;;;;5044462;28;20170;-76
2021/01/05 01:59:52;;;;;;;33.60;16.63;;;-0.30;99.90;;;;;;5054524;28;20173;-76
2021/01/05 02:02:27;;;;;;;34.00;16.77;;;-0.30;99.90;;;;;;5054350;28;20220;-75
2021/01/05 02:05:04;;;;;;;34.23;17.10;;;-0.30;99.90;;;;;;5054330;28;20193;-75
2021/01/05 02:08:08;;;;;;;33.97;17.27;;;-0.30;99.90;;;;;;5054686;28;20170;-76
2021/01/05 02:10:53;;;;;;;38.53;17.43;;;-0.30;99.90;;;;;;5054140;28;20669;-75
2021/01/05 02:13:38;;;;;;;32.13;16.63;;;-0.30;99.90;;;;;;5043626;28;20231;-75
2021/01/05 02:16:10;;;;;;;35.50;17.23;;;-0.20;99.90;;;;;;5054179;28;20185;-76
2021/01/05 02:18:42;;;;;;;38.80;17.70;;;-0.20;99.90;;;;;;5054193;28;20192;-76
2021/01/05 02:21:11;;;;;;;35.40;17.57;;;-0.20;99.90;;;;;;5054197;28;20193;-76
2021/01/05 02:23:44;;;;;;;36.43;17.97;;;-0.20;99.90;;;;;;5054138;28;20178;-75
2021/01/05 02:26:33;;;;;;;36.30;17.97;;;-0.20;99.90;;;;;;5054030;28;20588;-75
2021/01/05 02:29:04;;;;;;;35.97;17.63;;;-0.20;99.90;;;;;;5053584;28;20218;-75
2021/01/05 02:32:09;;;;;;;;;;;;;;;;;;;;;
2021/01/05 02:35:12;;;;;;;34.83;17.60;;;-0.20;99.90;;;;;;5054213;28;20180;-75
2021/01/05 02:37:53;;;;;;;40.07;19.60;;;-0.20;99.90;;;;;;4999694;28;20214;-76
2021/01/05 02:40:42;;;;;;;43.23;19.33;;;-0.20;99.90;;;;;;5043057;28;20200;-75
2021/01/05 02:43:37;;;;;;;46.63;20.50;;;-0.20;99.90;;;;;;5026375;28;20667;-76
2021/01/05 02:46:14;;;;;;;45.10;20.67;;;-0.20;99.90;;;;;;5031475;28;20228;-75
2021/01/05 02:48:50;;;;;;;40.37;19.57;;;-0.20;99.90;;;;;;5056326;28;20181;-75
2021/01/05 02:51:31;;;;;;;45.43;20.63;;;-0.20;99.90;;;;;;5054301;28;20272;-75
2021/01/05 02:54:34;;;;;;;41.70;19.10;;;-0.20;99.90;;;;;;5053857;28;20223;-76
2021/01/05 02:57:18;;;;;;;38.13;19.37;;;-0.20;99.90;;;;;;5031875;28;20178;-76
2021/01/05 03:00:12;;;;;;;38.27;18.40;;;-0.20;99.90;;;;;;5034044;28;20189;-76
2021/01/05 03:03:00;;;;;;;42.73;19.63;;;-0.20;99.90;;;;;;5036833;28;20531;-76
2021/01/05 03:05:26;;;;;;;40.20;18.97;;;-0.20;99.90;;;;;;5052044;28;20198;-75
2021/01/05 03:07:52;;;;;;;35.07;18.23;;;-0.20;99.90;;;;;;5053230;28;20209;-75
2021/01/05 03:10:38;;;;;;;34.17;18.23;;;-0.20;99.90;;;;;;5053396;28;20259;-76
2021/01/05 03:13:25;;;;;;;33.83;16.93;;;-0.20;99.90;;;;;;5053012;28;20173;-76
2021/01/05 03:15:54;;;;;;;34.70;18.23;;;-0.20;99.90;;;;;;5048427;28;20528;-76
2021/01/05 03:18:41;;;;;;;36.50;18.10;;;-0.20;99.90;;;;;;5045034;28;20192;-75
2021/01/05 03:21:20;;;;;;;37.40;18.53;;;-0.20;99.90;;;;;;5053071;28;20232;-75
2021/01/05 03:23:49;;;;;;;34.93;17.70;;;-0.10;99.90;;;;;;5052726;28;20181;-75
2021/01/05 03:26:18;;;;;;;34.53;16.77;;;-0.20;99.90;;;;;;5053179;28;20245;-75
2021/01/05 03:28:44;;;;;;;32.73;16.80;;;-0.10;99.90;;;;;;5052879;28;20199;-75
2021/01/05 03:31:17;;;;;;;32.23;16.47;;;-0.10;99.90;;;;;;5052586;28;20204;-75
2021/01/05 03:33:43;;;;;;;29.33;16.17;;;-0.10;99.90;;;;;;5052805;28;20239;-75
2021/01/05 03:36:11;;;;;;;31.50;16.37;;;-0.10;99.90;;;;;;5052902;28;20185;-75
2021/01/05 03:38:37;;;;;;;33.13;16.53;;;-0.10;99.90;;;;;;5052780;28;20192;-76
2021/01/05 03:41:03;;;;;;;33.50;16.80;;;-0.10;99.90;;;;;;5052606;28;20198;-75
2021/01/05 03:43:29;;;;;;;29.10;15.57;;;-0.10;99.90;;;;;;5052825;28;20180;-75
2021/01/05 03:45:55;;;;;;;31.47;16.40;;;-0.20;99.90;;;;;;5045152;28;20549;-75
2021/01/05 03:48:20;;;;;;;30.20;15.40;;;-0.10;99.90;;;;;;5052529;28;20206;-76
2021/01/05 03:50:46;;;;;;;34.67;17.60;;;-0.10;99.90;;;;;;5052552;28;20251;-75
2021/01/05 03:53:11;;;;;;;29.70;16.33;;;-0.20;99.90;;;;;;5051948;28;20968;-74
2021/01/05 03:55:37;;;;;;;32.37;16.27;;;-0.20;99.90;;;;;;5045623;28;20253;-75
2021/01/05 03:58:03;;;;;;;27.53;14.97;;;-0.20;99.90;;;;;;5049377;28;20176;-75
2021/01/05 04:00:29;;;;;;;31.43;16.53;;;-0.20;99.90;;;;;;5052426;28;20213;-76
2021/01/05 04:02:57;;;;;;;46.30;23.20;;;-0.20;99.90;;;;;;5051276;28;20261;-76
2021/01/05 04:05:25;;;;;;;31.00;16.30;;;-0.20;99.90;;;;;;5052265;28;20228;-75
2021/01/05 04:07:51;;;;;;;31.17;15.47;;;-0.20;99.90;;;;;;5050997;28;20166;-75
2021/01/05 04:10:17;;;;;;;33.43;16.87;;;-0.20;99.90;;;;;;5052181;28;20539;-75
2021/01/05 04:12:43;;;;;;;33.13;17.17;;;-0.10;99.90;;;;;;5052482;28;20170;-75
2021/01/05 04:15:16;;;;;;;29.07;15.23;;;-0.10;99.90;;;;;;5052249;28;20646;-76
2021/01/05 04:17:43;;;;;;;39.03;18.67;;;-0.10;99.90;;;;;;5052249;28;20174;-74
2021/01/05 04:20:10;;;;;;;34.77;17.63;;;0.00;99.90;;;;;;5052336;28;20178;-76
2021/01/05 04:22:36;;;;;;;29.77;16.10;;;0.00;99.90;;;;;;5051960;28;20177;-75
2021/01/05 04:25:02;;;;;;;31.97;17.50;;;0.00;99.90;;;;;;5052078;28;20216;-76
2021/01/05 04:27:28;;;;;;;34.33;17.93;;;0.00;99.90;;;;;;5050710;28;20170;-76
2021/01/05 04:29:54;;;;;;;35.93;17.10;;;0.00;99.90;;;;;;5052401;28;20174;-75
2021/01/05 04:32:20;;;;;;;32.23;16.90;;;0.00;99.90;;;;;;5050723;28;20723;-76
2021/01/05 04:34:45;;;;;;;34.93;18.90;;;0.00;99.90;;;;;;5052171;28;20903;-75
2021/01/05 04:37:11;;;;;;;31.30;16.40;;;0.00;99.90;;;;;;5052120;28;20238;-76
2021/01/05 04:39:37;;;;;;;31.43;16.63;;;0.00;99.90;;;;;;5051998;28;20648;-75
2021/01/05 04:42:31;;;;;;;33.83;17.83;;;0.00;99.90;;;;;;5051979;28;20215;-76
2021/01/05 04:45:02;;;;;;;32.23;16.07;;;0.00;99.90;;;;;;5049816;28;20259;-76
2021/01/05 04:47:46;;;;;;;31.40;15.93;;;0.10;99.90;;;;;;5051999;28;20666;-75
2021/01/05 04:50:22;;;;;;;34.07;16.10;;;0.10;99.90;;;;;;5050669;28;20177;-75
2021/01/05 04:53:07;;;;;;;33.63;16.27;;;0.10;99.90;;;;;;5051998;28;20219;-76
2021/01/05 04:55:32;;;;;;;29.90;16.13;;;0.10;99.90;;;;;;5043626;28;20240;-75
2021/01/05 04:58:17;;;;;;;28.70;14.97;;;0.10;99.90;;;;;;5046844;28;20177;-76
2021/01/05 05:00:43;;;;;;;28.37;15.23;;;0.10;99.90;;;;;;5044404;28;20765;-76
2021/01/05 05:03:33;;;;;;;30.23;15.70;;;0.10;99.90;;;;;;5048866;28;20216;-76
2021/01/05 05:06:05;;;;;;;26.63;14.23;;;0.10;99.90;;;;;;5054327;28;20190;-76
2021/01/05 05:08:46;;;;;;;31.90;15.97;;;0.20;99.90;;;;;;5055846;28;20176;-75
2021/01/05 05:11:16;;;;;;;26.40;15.03;;;0.10;99.90;;;;;;5054120;28;20655;-75
2021/01/05 05:14:02;;;;;;;30.23;15.50;;;0.10;99.90;;;;;;5055367;28;20261;-75
2021/01/05 05:17:14;;;;;;;28.47;14.77;;;0.00;99.90;;;;;;5053298;28;20652;-76
2021/01/05 05:20:10;;;;;;;30.63;15.20;;;0.00;99.90;;;;;;5053462;28;20174;-76
2021/01/05 05:23:17;;;;;;;33.53;15.17;;;0.00;99.90;;;;;;5053597;28;20166;-75
2021/01/05 05:25:49;;;;;;;28.60;15.03;;;0.00;99.90;;;;;;5034620;28;20591;-76
2021/01/05 05:28:22;;;;;;;27.37;14.60;;;0.00;99.90;;;;;;5055192;28;20185;-75
2021/01/05 05:30:48;;;;;;;29.80;16.17;;;0.10;99.90;;;;;;5053752;28;20335;-76
2021/01/05 05:33:17;;;;;;;36.20;17.43;;;0.10;99.90;;;;;;5055388;28;20182;-75
2021/01/05 05:35:55;;;;;;;31.77;17.00;;;0.10;99.90;;;;;;5054932;28;20181;-75
2021/01/05 05:38:37;;;;;;;31.60;16.37;;;0.10;99.90;;;;;;5053190;28;20169;-75
2021/01/05 05:41:39;;;;;;;30.43;16.23;;;0.10;99.90;;;;;;5054774;28;20197;-76
2021/01/05 05:44:26;;;;;;;29.67;15.67;;;0.10;99.90;;;;;;5039067;28;20586;-75
2021/01/05 05:47:11;;;;;;;29.77;15.13;;;0.10;99.90;;;;;;5054883;28;20174;-75
2021/01/05 05:49:59;;;;;;;33.27;17.43;;;0.10;99.90;;;;;;5054672;28;20177;-76
2021/01/05 05:52:32;;;;;;;34.77;17.97;;;0.20;99.90;;;;;;5053581;28;20205;-75
2021/01/05 05:54:59;;;;;;;29.53;16.40;;;0.20;99.90;;;;;;5053402;28;20211;-75
2021/01/05 05:57:40;;;;;;;33.03;16.90;;;0.20;99.90;;;;;;5046738;28;20538;-76
2021/01/05 06:00:19;;;;;;;31.90;15.63;;;0.20;99.90;;;;;;5053071;28;20209;-74
2021/01/05 06:02:45;;;;;;;31.90;15.43;;;0.30;99.90;;;;;;5054559;28;20177;-75
2021/01/05 06:05:35;;;;;;;30.43;16.33;;;0.30;99.90;;;;;;5054636;28;20296;-75
2021/01/05 06:08:03;;;;;;;27.70;15.57;;;0.30;99.90;;;;;;5054479;28;20644;-75
2021/01/05 06:10:28;;;;;;;30.30;16.33;;;0.30;99.90;;;;;;5054258;28;20213;-76
2021/01/05 06:12:55;;;;;;;31.27;16.20;;;0.20;99.90;;;;;;5053384;28;20182;-75
2021/01/05 06:15:21;;;;;;;34.23;16.60;;;0.20;99.90;;;;;;5053785;28;20169;-76
2021/01/05 06:17:48;;;;;;;30.37;15.97;;;0.20;99.90;;;;;;5054205;28;20181;-75
2021/01/05 06:20:14;;;;;;;29.27;15.37;;;0.20;99.90;;;;;;5054359;28;20679;-75
2021/01/05 06:22:39;;;;;;;34.67;16.77;;;0.20;99.90;;;;;;5054165;28;20181;-75
2021/01/05 06:25:07;;;;;;;29.57;16.50;;;0.20;99.90;;;;;;5054310;28;20601;-75
2021/01/05 06:27:33;;;;;;;32.30;16.07;;;0.20;99.90;;;;;;5054042;28;20253;-76
2021/01/05 06:29:59;;;;;;;31.67;16.57;;;0.10;99.90;;;;;;5054049;28;20185;-74
2021/01/05 06:32:25;;;;;;;29.93;16.03;;;0.10;99.90;;;;;;5052543;28;20189;-74
2021/01/05 06:34:51;;;;;;;31.23;15.97;;;0.00;99.90;;;;;;5054292;28;20776;-74
2021/01/05 06:37:17;;;;;;;35.03;17.30;;;0.10;99.90;;;;;;5054946;28;20193;-75
2021/01/05 06:39:43;;;;;;;34.30;17.40;;;0.00;99.90;;;;;;5054259;28;20178;-74
2021/01/05 06:42:09;;;;;;;34.60;17.67;;;0.10;99.90;;;;;;5054098;28;20696;-74
2021/01/05 06:44:35;;;;;;;32.33;17.57;;;0.10;99.90;;;;;;5052435;28;20263;-75
2021/01/05 06:47:01;;;;;;;31.37;17.23;;;0.10;99.90;;;;;;5053782;28;20209;-74
2021/01/05 06:49:29;;;;;;;36.73;17.60;;;0.10;99.90;;;;;;5053778;28;20656;-74
2021/01/05 06:51:55;;;;;;;29.57;16.07;;;0.10;99.90;;;;;;5052540;28;20189;-73
2021/01/05 06:54:21;;;;;;;36.57;17.30;;;0.10;99.90;;;;;;5052272;28;20542;-74
2021/01/05 06:56:54;;;;;;;35.63;18.43;;;0.00;99.90;;;;;;5043496;28;20185;-74
2021/01/05 06:59:22;;;;;;;36.57;17.10;;;0.00;99.90;;;;;;5053888;28;20181;-74
2021/01/05 07:01:50;;;;;;;32.03;16.80;;;-0.10;99.90;;;;;;5053307;28;20218;-74
2021/01/05 07:04:16;;;;;;;35.57;16.93;;;-0.10;99.90;;;;;;5053286;28;20205;-74
2021/01/05 07:06:42;;;;;;;32.00;17.07;;;0.00;99.90;;;;;;5053533;28;20188;-75
2021/01/05 07:09:08;;;;;;;35.23;17.43;;;0.10;99.90;;;;;;5053563;28;20219;-74
2021/01/05 07:11:35;;;;;;;37.13;18.93;;;0.10;99.90;;;;;;5053187;28;20204;-72
2021/01/05 07:14:01;;;;;;;38.90;18.87;;;0.10;99.90;;;;;;5030285;28;20228;-73
2021/01/05 07:16:27;;;;;;;46.73;21.27;;;0.10;99.90;;;;;;5036783;28;20240;-74
2021/01/05 07:18:52;;;;;;;94.00;38.33;;;0.00;99.90;;;;;;5038650;28;20649;-74
2021/01/05 07:21:18;;;;;;;53.37;24.47;;;0.00;99.90;;;;;;5036044;28;20198;-74
2021/01/05 07:23:43;;;;;;;36.77;17.67;;;0.00;99.90;;;;;;5033480;28;20584;-75
2021/01/05 07:26:09;;;;;;;37.00;18.00;;;0.00;99.90;;;;;;5052934;28;20233;-74
2021/01/05 07:28:39;;;;;;;40.43;19.10;;;0.00;99.90;;;;;;5050688;28;20193;-75
2021/01/05 07:31:05;;;;;;;35.53;18.37;;;0.00;99.90;;;;;;5049245;28;20197;-74
2021/01/05 07:33:31;;;;;;;36.73;18.07;;;0.00;99.90;;;;;;5053207;28;20232;-74
2021/01/05 07:36:01;;;;;;;34.53;17.30;;;0.00;99.90;;;;;;5038896;28;20235;-75
2021/01/05 07:38:27;;;;;;;35.50;17.83;;;0.00;99.90;;;;;;5051569;28;20185;-74
2021/01/05 07:40:54;;;;;;;39.83;18.03;;;0.10;99.90;;;;;;5052819;28;20212;-75
2021/01/05 07:43:19;;;;;;;35.70;19.17;;;0.10;99.90;;;;;;5052591;28;20188;-74
2021/01/05 07:45:45;;;;;;;36.17;17.50;;;0.20;99.90;;;;;;5052801;28;20200;-74
2021/01/05 07:48:11;;;;;;;37.87;18.30;;;0.10;99.90;;;;;;5051321;28;20225;-73
2021/01/05 07:50:37;;;;;;;42.17;19.97;;;0.20;99.90;;;;;;5052721;28;20202;-74
2021/01/05 07:53:03;;;;;;;38.47;19.60;;;0.20;99.90;;;;;;5048392;28;20189;-74
2021/01/05 07:55:30;;;;;;;37.87;17.43;;;0.20;99.90;;;;;;5036417;28;20182;-74
2021/01/05 07:57:56;;;;;;;39.73;18.77;;;0.20;99.90;;;;;;5048409;28;20174;-74
2021/01/05 08:00:25;;;;;;;35.93;18.80;;;0.20;99.90;;;;;;5044292;28;20205;-74
2021/01/05 08:02:53;;;;;;;35.17;18.50;;;0.20;99.90;;;;;;5051034;28;20182;-73
2021/01/05 08:05:21;;;;;;;39.07;18.93;;;0.30;99.90;;;;;;5052217;28;20197;-75
2021/01/05 08:07:47;;;;;;;33.80;17.00;;;0.30;99.90;;;;;;5046703;28;20600;-74
2021/01/05 08:10:24;;;;;;;37.50;18.57;;;0.30;99.90;;;;;;5018308;28;20175;-74
2021/01/05 08:12:50;;;;;;;36.23;17.67;;;0.30;99.90;;;;;;5026625;28;20174;-74
2021/01/05 08:15:19;;;;;;;41.87;20.10;;;0.30;99.90;;;;;;5036271;28;20536;-73
2021/01/05 08:17:45;;;;;;;39.80;18.23;;;0.20;99.90;;;;;;5034806;28;20181;-74
2021/01/05 08:20:12;;;;;;;38.80;19.23;;;0.20;99.90;;;;;;5034234;28;20549;-74
2021/01/05 08:22:38;;;;;;;35.03;18.43;;;0.20;99.90;;;;;;5042147;28;20302;-75
2021/01/05 08:25:05;;;;;;;38.53;18.53;;;0.20;99.90;;;;;;5054615;28;20194;-74
2021/01/05 08:27:30;;;;;;;39.43;19.53;;;0.10;99.90;;;;;;5050788;28;20613;-74
2021/01/05 08:29:56;;;;;;;39.30;18.73;;;0.10;99.90;;;;;;5052184;28;20173;-74
2021/01/05 08:32:23;;;;;;;38.07;19.03;;;0.20;99.90;;;;;;5052155;28;20216;-76
2021/01/05 08:34:49;;;;;;;38.10;19.13;;;0.20;99.90;;;;;;5051065;28;20180;-75
2021/01/05 08:37:15;;;;;;;40.03;19.03;;;0.20;99.90;;;;;;5052060;28;20174;-74
2021/01/05 08:39:42;;;;;;;36.27;19.03;;;0.20;99.90;;;;;;5053989;28;20658;-75
2021/01/05 08:42:08;;;;;;;41.90;19.30;;;0.20;99.90;;;;;;5051492;28;20217;-75
2021/01/05 08:44:34;;;;;;;40.33;19.23;;;0.10;99.90;;;;;;5043892;28;20561;-75
2021/01/05 08:47:02;;;;;;;37.13;18.73;;;0.10;99.90;;;;;;5053427;28;20174;-74
2021/01/05 08:49:28;;;;;;;48.33;23.23;;;0.10;99.90;;;;;;5055253;28;20174;-75
2021/01/05 08:51:55;;;;;;;47.30;23.03;;;0.20;99.90;;;;;;5053495;28;20197;-75
2021/01/05 08:54:21;;;;;;;44.43;21.07;;;0.10;99.90;;;;;;5056128;28;20628;-74
2021/01/05 08:56:59;;;;;;;44.60;22.20;;;0.20;99.90;;;;;;5045838;28;20684;-74
2021/01/05 08:59:25;;;;;;;45.80;20.63;;;0.20;99.90;;;;;;5055714;28;20215;-75
2021/01/05 09:01:51;;;;;;;40.80;19.33;;;0.20;99.90;;;;;;5055502;28;20300;-75
2021/01/05 09:04:17;;;;;;;42.80;19.37;;;0.20;99.90;;;;;;5055624;28;20278;-75
2021/01/05 09:06:49;;;;;;;40.50;19.30;;;0.20;99.90;;;;;;5055476;28;20196;-73
2021/01/05 09:09:16;;;;;;;39.83;19.37;;;0.10;99.90;;;;;;5042688;28;20181;-74
2021/01/05 09:11:43;;;;;;;39.47;18.90;;;0.10;99.90;;;;;;5049400;28;20601;-75
2021/01/05 09:14:08;;;;;;;39.87;19.67;;;0.20;99.90;;;;;;5055321;28;20177;-75
2021/01/05 09:16:34;;;;;;;37.27;18.17;;;0.20;99.90;;;;;;5055650;28;20215;-75
2021/01/05 09:19:00;;;;;;;41.17;18.93;;;0.10;99.90;;;;;;5055182;28;20181;-74
2021/01/05 09:21:29;;;;;;;39.00;18.90;;;0.10;99.90;;;;;;5055293;28;20192;-75
2021/01/05 09:23:58;;;;;;;41.10;19.67;;;0.10;99.90;;;;;;5055498;28;20548;-75
2021/01/05 09:26:30;;;;;;;41.07;19.30;;;0.10;99.90;;;;;;5055164;28;20268;-74
2021/01/05 09:28:57;;;;;;;42.20;20.37;;;0.10;99.90;;;;;;5049994;28;20201;-75
2021/01/05 09:31:23;;;;;;;41.40;19.23;;;0.20;99.90;;;;;;5055082;28;20331;-75
2021/01/05 09:33:49;;;;;;;42.60;20.03;;;0.20;99.90;;;;;;5050394;28;20261;-75
2021/01/05 09:36:16;;;;;;;40.70;18.80;;;0.30;99.90;;;;;;5054427;28;20192;-75
2021/01/05 09:38:44;;;;;;;33.47;17.43;;;0.20;99.90;;;;;;5055219;28;20258;-75
2021/01/05 09:41:31;;;;;;;37.40;19.00;;;0.20;99.90;;;;;;5055372;28;20684;-75
2021/01/05 09:43:57;;;;;;;38.77;18.30;;;0.20;99.90;;;;;;5055669;28;20244;-76
2021/01/05 09:46:23;;;;;;;36.57;18.57;;;0.30;99.90;;;;;;5053903;28;20648;-76
2021/01/05 09:48:50;;;;;;;37.63;18.77;;;0.30;99.90;;;;;;5054673;28;20178;-75
2021/01/05 09:51:23;;;;;;;41.93;19.33;;;0.40;99.90;;;;;;5053634;28;20679;-75
2021/01/05 09:53:49;;;;;;;40.80;19.63;;;0.40;99.90;;;;;;5054754;28;20158;-76
2021/01/05 09:56:15;;;;;;;38.33;18.43;;;0.40;99.90;;;;;;5044636;28;20193;-75
2021/01/05 09:58:41;;;;;;;37.70;18.43;;;0.50;99.90;;;;;;5046503;28;20262;-75
2021/01/05 10:01:06;;;;;;;35.30;19.17;;;0.50;99.90;;;;;;5047087;28;20830;-75
2021/01/05 10:03:32;;;;;;;37.37;17.87;;;0.50;99.90;;;;;;5052626;28;20253;-76
2021/01/05 10:05:58;;;;;;;37.37;18.63;;;0.50;99.90;;;;;;5052988;28;20280;-74
2021/01/05 10:08:24;;;;;;;40.57;18.63;;;0.40;99.90;;;;;;5053617;28;20169;-75
2021/01/05 10:10:50;;;;;;;37.60;18.47;;;0.40;99.90;;;;;;5052751;28;20229;-75
2021/01/05 10:13:16;;;;;;;34.70;18.10;;;0.40;99.90;;;;;;5054288;28;20185;-75
2021/01/05 10:15:42;;;;;;;35.77;18.10;;;0.40;99.90;;;;;;5054104;28;20177;-76
2021/01/05 10:18:08;;;;;;;37.00;17.23;;;0.40;99.90;;;;;;5054285;28;20265;-75
2021/01/05 10:20:33;;;;;;;37.30;18.47;;;0.50;99.90;;;;;;5054108;28;20209;-75
2021/01/05 10:22:59;;;;;;;38.03;18.67;;;0.50;99.90;;;;;;5054247;28;20170;-75
2021/01/05 10:25:25;;;;;;;38.63;18.40;;;0.50;99.90;;;;;;5053858;28;20196;-74
2021/01/05 10:27:51;;;;;;;40.17;20.50;;;0.40;99.90;;;;;;5054381;28;20162;-75
2021/01/05 10:30:18;;;;;;;38.67;19.27;;;0.40;99.90;;;;;;5054069;28;20695;-75
2021/01/05 10:32:45;;;;;;;41.83;20.00;;;0.40;99.90;;;;;;5053896;28;20564;-75
2021/01/05 10:35:13;;;;;;;40.70;19.60;;;0.50;99.90;;;;;;5049821;28;20228;-75
2021/01/05 10:37:39;;;;;;;43.33;18.57;;;0.50;99.90;;;;;;5050924;28;20524;-75
2021/01/05 10:40:06;;;;;;;37.83;18.50;;;0.50;99.90;;;;;;5053906;28;20182;-76
2021/01/05 10:42:33;;;;;;;40.87;19.57;;;0.50;99.90;;;;;;5046143;28;20190;-76
2021/01/05 10:44:59;;;;;;;44.23;21.63;;;0.50;99.90;;;;;;5053744;28;20277;-75
2021/01/05 10:47:24;;;;;;;35.67;19.10;;;0.60;99.90;;;;;;5053645;28;20249;-75
2021/01/05 10:49:50;;;;;;;37.60;19.13;;;0.60;99.90;;;;;;5047413;28;20181;-75
2021/01/05 10:52:17;;;;;;;36.23;19.40;;;0.60;99.90;;;;;;5044493;28;20272;-76
2021/01/05 10:54:43;;;;;;;40.63;19.57;;;0.60;99.90;;;;;;5051771;28;20553;-73
2021/01/05 10:57:10;;;;;;;40.97;19.07;;;0.60;99.90;;;;;;5043577;28;20170;-73
2021/01/05 10:59:39;;;;;;;38.73;17.27;;;0.60;99.90;;;;;;5053372;28;20190;-74
2021/01/05 11:02:08;;;;;;;34.97;18.17;;;0.50;99.90;;;;;;5053707;28;20213;-74
2021/01/05 11:04:34;;;;;;;39.57;18.43;;;0.50;99.90;;;;;;5053160;28;20278;-74
2021/01/05 11:07:07;;;;;;;36.67;18.63;;;0.60;99.90;;;;;;5041797;28;20183;-73
2021/01/05 11:09:34;;;;;;;35.40;18.43;;;0.60;99.90;;;;;;5036868;28;20215;-75
2021/01/05 11:12:03;;;;;;;38.27;19.00;;;0.70;99.90;;;;;;5047934;28;20252;-74
2021/01/05 11:14:29;;;;;;;37.10;17.73;;;0.70;99.90;;;;;;5036020;28;20185;-74
2021/01/05 11:16:55;;;;;;;32.47;16.33;;;0.70;99.90;;;;;;5046258;28;20178;-74
2021/01/05 11:19:21;;;;;;;40.93;18.33;;;0.70;99.90;;;;;;5033314;28;20273;-74
2021/01/05 11:21:55;;;;;;;34.97;17.77;;;0.70;99.90;;;;;;5037181;28;20209;-73
2021/01/05 11:24:21;;;;;;;35.80;17.20;;;0.80;99.90;;;;;;5052321;28;20185;-74
2021/01/05 11:26:51;;;;;;;34.70;17.73;;;0.80;99.90;;;;;;5048454;28;20187;-73
2021/01/05 11:29:18;;;;;;;33.90;17.00;;;0.80;99.90;;;;;;5041630;28;20182;-75
2021/01/05 11:31:45;;;;;;;31.00;16.63;;;0.90;99.90;;;;;;5045220;28;20260;-74
2021/01/05 11:34:10;;;;;;;30.53;15.50;;;0.90;99.90;;;;;;5047524;28;20264;-74
2021/01/05 11:36:40;;;;;;;35.90;17.40;;;0.90;99.90;;;;;;5053662;28;20243;-75
2021/01/05 11:39:06;;;;;;;29.07;15.53;;;0.90;99.90;;;;;;5053022;28;20171;-74
2021/01/05 11:41:34;;;;;;;30.63;16.30;;;0.90;99.90;;;;;;5048407;28;20201;-73
2021/01/05 11:44:03;;;;;;;26.77;13.80;;;0.90;99.90;;;;;;5029613;28;20679;-73
2021/01/05 11:46:28;;;;;;;21.07;12.07;;;0.90;99.90;;;;;;5020605;28;20213;-74
2021/01/05 11:48:55;;;;;;;26.27;12.47;;;0.90;99.90;;;;;;5031054;28;20217;-74
2021/01/05 11:51:25;;;;;;;25.10;13.90;;;0.90;99.90;;;;;;5027697;28;20197;-74
2021/01/05 11:53:51;;;;;;;26.47;13.77;;;0.90;99.90;;;;;;5023400;28;20209;-74
2021/01/05 11:56:23;;;;;;;25.40;13.17;;;0.90;99.90;;;;;;5030412;28;20221;-73
2021/01/05 11:58:49;;;;;;;21.20;11.60;;;0.90;99.90;;;;;;5028606;28;20183;-73
2021/01/05 12:01:15;;;;;;;60.63;23.87;;;0.90;99.90;;;;;;5037509;28;20255;-74
2021/01/05 12:03:42;;;;;;;20.90;11.67;;;0.90;99.90;;;;;;5030594;28;20186;-74
2021/01/05 12:06:16;;;;;;;21.40;12.63;;;0.90;99.90;;;;;;5029659;28;20210;-73
2021/01/05 12:08:43;;;;;;;24.70;13.03;;;0.80;99.90;;;;;;5022689;28;20198;-74
2021/01/05 12:11:14;;;;;;;22.20;12.33;;;0.80;99.90;;;;;;5025507;28;20198;-74
2021/01/05 12:13:40;;;;;;;19.90;11.37;;;0.90;99.90;;;;;;5028974;28;20185;-74
2021/01/05 12:16:05;;;;;;;20.50;11.20;;;0.80;99.90;;;;;;5029700;28;20186;-74
2021/01/05 12:18:32;;;;;;;22.03;11.83;;;0.80;99.90;;;;;;5019452;28;20183;-73
2021/01/05 12:20:57;;;;;;;22.23;13.43;;;0.90;99.90;;;;;;5020097;28;20215;-74
2021/01/05 12:23:23;;;;;;;23.87;12.83;;;0.80;99.90;;;;;;5015702;28;20549;-74
2021/01/05 12:25:49;;;;;;;18.97;11.53;;;0.80;99.90;;;;;;5027876;28;20217;-74
2021/01/05 12:28:15;;;;;;;21.53;11.77;;;0.80;99.90;;;;;;5030257;28;20613;-73
2021/01/05 12:30:41;;;;;;;23.90;12.47;;;0.80;99.90;;;;;;5026893;28;20210;-73
2021/01/05 12:33:12;;;;;;;22.37;12.07;;;0.90;99.90;;;;;;5031474;28;20667;-73
2021/01/05 12:35:43;;;;;;;19.10;11.07;;;0.90;99.90;;;;;;5045119;28;20185;-74
2021/01/05 12:38:08;;;;;;;21.17;11.90;;;0.90;99.90;;;;;;5051023;28;20182;-73
2021/01/05 12:40:34;;;;;;;20.20;12.03;;;0.90;99.90;;;;;;5051728;28;20285;-73
2021/01/05 12:43:00;;;;;;;22.70;11.63;;;0.90;99.90;;;;;;5052170;28;20184;-73
2021/01/05 12:45:26;;;;;;;23.77;12.50;;;0.90;99.90;;;;;;5050863;28;20664;-73
2021/01/05 12:47:52;;;;;;;22.13;12.37;;;0.90;99.90;;;;;;5051869;28;20188;-73
2021/01/05 12:50:20;;;;;;;21.10;12.87;;;0.90;99.90;;;;;;5037740;28;20176;-73